createdAt,value
2019-06-27T00:02:14.393Z,99987.16
2019-06-27T00:04:40.594Z,99991.27
2019-06-27T00:07:06.860Z,99993.75
2019-06-27T00:09:33.088Z,99995.48
2019-06-27T00:11:59.281Z,99996.03
2019-06-27T00:14:25.450Z,99987.06
2019-06-27T00:16:51.665Z,99986.25
2019-06-27T00:19:17.908Z,99986.18
2019-06-27T00:21:44.121Z,99985.02
2019-06-27T00:24:10.353Z,99984.23
2019-06-27T00:26:36.569Z,99977.25
2019-06-27T00:29:02.935Z,99976.77
2019-06-27T00:31:29.133Z,99972.00
2019-06-27T00:33:55.361Z,99967.83
2019-06-27T00:36:21.521Z,99970.84
2019-06-27T00:38:47.714Z,99968.38
2019-06-27T00:41:13.912Z,99968.61
2019-06-27T00:43:40.191Z,99980.14
2019-06-27T00:46:06.400Z,99979.21
2019-06-27T00:48:32.729Z,99973.14
2019-06-27T00:50:58.886Z,99969.11
2019-06-27T00:53:25.064Z,99967.97
2019-06-27T00:55:51.309Z,99968.45
2019-06-27T00:58:17.465Z,99975.84
2019-06-27T01:00:43.773Z,99970.30
2019-06-27T01:03:10.199Z,99971.18
2019-06-27T01:05:36.422Z,99964.62
2019-06-27T01:08:02.763Z,99958.92
2019-06-27T01:10:29.009Z,99965.25
2019-06-27T01:12:55.246Z,99964.28
2019-06-27T01:15:21.552Z,99964.50
2019-06-27T01:17:47.740Z,99964.34
2019-06-27T01:20:15.484Z,99966.57
2019-06-27T01:22:41.764Z,99962.05
2019-06-27T01:25:08.252Z,99958.84
2019-06-27T01:27:34.729Z,99963.22
2019-06-27T01:30:01.163Z,99968.88
2019-06-27T01:32:27.500Z,99965.59
2019-06-27T01:34:53.653Z,99971.91
2019-06-27T01:37:20.055Z,99968.88
2019-06-27T01:39:46.525Z,99964.70
2019-06-27T01:42:12.803Z,99968.39
2019-06-27T01:44:43.428Z,99965.02
2019-06-27T01:47:10.186Z,99964.12
2019-06-27T01:49:36.434Z,99961.14
2019-06-27T01:52:02.699Z,99960.24
2019-06-27T01:54:28.972Z,99960.73
2019-06-27T01:56:55.135Z,99961.22
2019-06-27T01:59:21.317Z,99959.25
2019-06-27T02:01:47.526Z,99953.59
2019-06-27T02:04:13.686Z,99956.13
2019-06-27T02:06:39.845Z,99954.25
2019-06-27T02:09:06.061Z,99957.25
2019-06-27T02:11:32.248Z,99964.15
2019-06-27T02:13:58.417Z,99961.85
2019-06-27T02:16:24.716Z,99960.88
2019-06-27T02:18:50.881Z,99949.88
2019-06-27T02:21:17.238Z,99958.89
2019-06-27T02:23:43.604Z,99961.59
2019-06-27T02:26:09.830Z,99956.44
2019-06-27T02:28:36.061Z,99957.76
2019-06-27T02:31:02.294Z,99951.38
2019-06-27T02:33:28.517Z,99953.27
2019-06-27T02:35:54.747Z,99952.47
2019-06-27T02:38:20.953Z,99959.83
2019-06-27T02:40:47.130Z,99956.62
2019-06-27T02:43:13.338Z,99951.42
2019-06-27T02:45:39.562Z,99946.78
2019-06-27T02:48:05.778Z,99939.91
2019-06-27T02:50:32.007Z,99943.55
2019-06-27T02:52:58.246Z,99941.33
2019-06-27T02:55:24.466Z,99936.27
2019-06-27T02:57:50.696Z,99936.59
2019-06-27T03:00:17.904Z,99934.16
2019-06-27T03:02:44.169Z,99934.27
2019-06-27T03:05:10.809Z,99939.67
2019-06-27T03:07:37.552Z,99931.23
2019-06-27T03:10:05.931Z,99937.23
2019-06-27T03:12:32.101Z,99930.30
2019-06-27T03:14:58.394Z,99928.77
2019-06-27T03:17:24.654Z,99920.31
2019-06-27T03:19:50.833Z,99910.85
2019-06-27T03:22:17.182Z,99907.71
2019-06-27T03:24:43.418Z,99903.80
2019-06-27T03:27:09.564Z,99904.48
2019-06-27T03:29:35.769Z,99902.11
2019-06-27T03:32:02.124Z,99902.05
2019-06-27T03:34:28.388Z,99897.81
2019-06-27T03:36:54.849Z,99898.14
2019-06-27T03:39:21.189Z,99898.61
2019-06-27T03:41:47.337Z,99896.23
2019-06-27T03:44:13.639Z,99898.61
2019-06-27T03:46:39.792Z,99896.70
2019-06-27T03:49:05.955Z,99892.11
2019-06-27T03:51:32.214Z,99881.70
2019-06-27T03:53:58.436Z,99884.27
2019-06-27T03:56:24.683Z,99885.08
2019-06-27T03:59:10.771Z,99887.28
2019-06-27T04:01:18.967Z,99882.70
2019-06-27T04:03:45.126Z,99876.25
2019-06-27T04:06:11.429Z,99871.23
2019-06-27T04:08:37.657Z,99867.61
2019-06-27T04:11:04.080Z,99865.80
2019-06-27T04:13:30.414Z,99868.05
2019-06-27T04:15:56.636Z,99864.66
2019-06-27T04:18:22.799Z,99869.17
2019-06-27T04:20:49.100Z,99867.92
2019-06-27T04:23:16.250Z,99863.55
2019-06-27T04:25:42.415Z,99857.42
2019-06-27T04:28:08.893Z,99848.66
2019-06-27T04:30:35.194Z,99848.66
2019-06-27T04:33:01.512Z,99841.18
2019-06-27T04:35:27.722Z,99853.75
2019-06-27T04:37:53.916Z,99846.78
2019-06-27T04:40:20.189Z,99844.17
2019-06-27T04:42:46.401Z,99843.41
2019-06-27T04:45:12.691Z,99849.22
2019-06-27T04:47:38.880Z,99849.98
2019-06-27T04:50:05.158Z,99849.98
2019-06-27T04:52:31.338Z,99850.21
2019-06-27T04:54:57.495Z,99854.84
2019-06-27T04:57:23.714Z,99852.39
2019-06-27T04:59:53.912Z,99839.20
2019-06-27T05:02:17.980Z,99843.41
2019-06-27T05:04:44.208Z,99843.16
2019-06-27T05:07:10.394Z,99839.88
2019-06-27T05:09:36.556Z,99840.78
2019-06-27T05:12:02.782Z,99838.69
2019-06-27T05:14:32.444Z,99845.67
2019-06-27T05:16:56.995Z,99868.41
2019-06-27T05:19:23.216Z,99853.75
2019-06-27T05:21:49.392Z,99856.06
2019-06-27T05:24:15.563Z,99845.81
2019-06-27T05:26:41.764Z,99857.41
2019-06-27T05:29:07.946Z,99862.54
2019-06-27T05:31:34.099Z,99851.06
2019-06-27T05:34:00.412Z,99860.84
2019-06-27T05:36:26.582Z,99849.41
2019-06-27T05:38:52.876Z,99848.73
2019-06-27T05:41:19.089Z,99847.47
2019-06-27T05:43:45.277Z,99848.78
2019-06-27T05:46:11.467Z,99847.47
2019-06-27T05:48:39.861Z,99838.59
2019-06-27T05:51:05.762Z,99841.50
2019-06-27T05:53:31.926Z,99825.34
2019-06-27T05:55:58.123Z,99826.96
2019-06-27T05:58:24.316Z,99827.26
2019-06-27T06:00:50.488Z,99825.31
2019-06-27T06:03:16.686Z,99815.70
2019-06-27T06:05:42.868Z,99821.05
2019-06-27T06:08:09.061Z,99823.20
2019-06-27T06:10:35.255Z,99816.05
2019-06-27T06:13:01.456Z,99819.55
2019-06-27T06:15:27.636Z,99808.08
2019-06-27T06:17:53.829Z,99808.24
2019-06-27T06:20:20.120Z,99807.61
2019-06-27T06:22:46.284Z,99807.41
2019-06-27T06:25:12.612Z,99799.32
2019-06-27T06:27:38.923Z,99807.41
2019-06-27T06:30:05.885Z,99809.80
2019-06-27T06:32:32.108Z,99808.00
2019-06-27T06:34:58.338Z,99801.80
2019-06-27T06:37:24.643Z,99801.11
2019-06-27T06:39:50.832Z,99796.93
2019-06-27T06:42:17.008Z,99792.23
2019-06-27T06:44:43.200Z,99787.87
2019-06-27T06:47:09.382Z,99785.20
2019-06-27T06:49:35.564Z,99789.06
2019-06-27T06:52:01.722Z,99790.19
2019-06-27T06:54:27.930Z,99788.07
2019-06-27T06:56:54.125Z,99785.27
2019-06-27T06:59:20.309Z,99792.84
2019-06-27T07:01:46.526Z,99791.31
2019-06-27T07:04:12.689Z,99782.70
2019-06-27T07:06:38.864Z,99779.79
2019-06-27T07:09:07.073Z,99777.29
2019-06-27T07:11:33.266Z,99774.68
2019-06-27T07:13:59.546Z,99772.61
2019-06-27T07:16:25.744Z,99766.31
2019-06-27T07:18:51.902Z,99764.89
2019-06-27T07:21:18.082Z,99749.91
2019-06-27T07:23:44.284Z,99754.48
2019-06-27T07:26:10.448Z,99759.44
2019-06-27T07:28:36.766Z,99750.13
2019-06-27T07:31:16.800Z,99750.79
2019-06-27T07:33:31.434Z,99742.90
2019-06-27T07:35:57.615Z,99746.93
2019-06-27T07:38:23.802Z,99745.90
2019-06-27T07:40:50.002Z,99741.63
2019-06-27T07:43:16.165Z,99738.27
2019-06-27T07:45:42.345Z,99731.76
2019-06-27T07:48:08.526Z,99737.16
2019-06-27T07:50:34.693Z,99731.50
2019-06-27T07:53:00.884Z,99726.25
2019-06-27T07:55:27.079Z,99723.14
2019-06-27T07:57:53.264Z,99721.55
2019-06-27T08:00:19.744Z,99718.91
2019-06-27T08:02:45.913Z,99717.77
2019-06-27T08:05:13.821Z,99705.74
2019-06-27T08:07:40.005Z,99698.75
2019-06-27T08:10:06.495Z,99700.73
2019-06-27T08:12:32.683Z,99703.78
2019-06-27T08:14:58.865Z,99700.14
2019-06-27T08:17:25.417Z,99702.20
2019-06-27T08:19:51.601Z,99702.52
2019-06-27T08:22:17.820Z,99709.84
2019-06-27T08:24:43.971Z,99703.34
2019-06-27T08:27:10.180Z,99704.54
2019-06-27T08:29:36.347Z,99703.13
2019-06-27T08:32:02.513Z,99699.09
2019-06-27T08:34:28.735Z,99697.15
2019-06-27T08:36:55.202Z,99684.55
2019-06-27T08:39:21.365Z,99682.80
2019-06-27T08:41:47.522Z,99673.22
2019-06-27T08:44:13.731Z,99666.09
2019-06-27T08:46:40.189Z,99674.97
2019-06-27T08:49:06.372Z,99664.28
2019-06-27T08:51:32.577Z,99663.03
2019-06-27T08:53:58.743Z,99671.16
2019-06-27T08:56:24.923Z,99672.08
2019-06-27T08:58:51.116Z,99656.02
2019-06-27T09:01:17.275Z,99657.17
2019-06-27T09:03:43.457Z,99662.95
2019-06-27T09:06:09.650Z,99657.52
2019-06-27T09:08:35.834Z,99651.42
2019-06-27T09:11:02.021Z,99641.17
2019-06-27T09:13:28.212Z,99644.96
2019-06-27T09:15:54.369Z,99651.97
2019-06-27T09:18:20.653Z,99655.50
2019-06-27T09:20:46.873Z,99637.27
2019-06-27T09:23:13.037Z,99633.34
2019-06-27T09:25:39.537Z,99624.79
2019-06-27T09:28:05.736Z,99619.19
2019-06-27T09:30:31.953Z,99619.39
2019-06-27T09:32:58.144Z,99615.72
2019-06-27T09:35:24.356Z,99620.42
2019-06-27T09:37:50.507Z,99615.22
2019-06-27T09:40:17.169Z,99603.70
2019-06-27T09:42:43.404Z,99598.48
2019-06-27T09:45:10.293Z,99595.61
2019-06-27T09:47:36.467Z,99592.80
2019-06-27T09:50:06.297Z,99582.93
2019-06-27T09:52:32.549Z,99581.46
2019-06-27T09:54:58.712Z,99585.46
2019-06-27T09:57:24.935Z,99578.12
2019-06-27T09:59:51.100Z,99585.88
2019-06-27T10:02:17.247Z,99578.20
2019-06-27T10:04:43.464Z,99563.23
2019-06-27T10:07:16.048Z,99569.88
2019-06-27T10:09:39.783Z,99562.75
2019-06-27T10:12:05.988Z,99564.53
2019-06-27T10:14:33.161Z,99543.05
2019-06-27T10:16:59.366Z,99549.93
2019-06-27T10:19:25.575Z,99550.48
2019-06-27T10:21:51.729Z,99550.89
2019-06-27T10:24:18.981Z,99547.95
2019-06-27T10:26:45.164Z,99534.94
2019-06-27T10:29:11.440Z,99532.61
2019-06-27T10:31:37.941Z,99541.78
2019-06-27T10:34:04.161Z,99528.05
2019-06-27T10:36:30.318Z,99527.20
2019-06-27T10:38:56.466Z,99521.58
2019-06-27T10:41:22.694Z,99519.69
2019-06-27T10:43:49.919Z,99519.63
2019-06-27T10:46:16.149Z,99510.55
2019-06-27T10:48:42.334Z,99515.42
2019-06-27T10:51:08.539Z,99511.63
2019-06-27T10:53:34.687Z,99502.62
2019-06-27T10:56:01.099Z,99497.84
2019-06-27T10:58:27.707Z,99491.95
2019-06-27T11:00:53.882Z,99502.23
2019-06-27T11:03:20.266Z,99499.42
2019-06-27T11:05:46.606Z,99500.28
2019-06-27T11:08:14.778Z,99485.45
2019-06-27T11:10:40.884Z,99476.22
2019-06-27T11:13:07.060Z,99480.30
2019-06-27T11:15:33.201Z,99465.57
2019-06-27T11:17:59.405Z,99452.18
2019-06-27T11:20:27.362Z,99463.20
2019-06-27T11:22:53.532Z,99465.73
2019-06-27T11:25:19.836Z,99457.77
2019-06-27T11:27:46.022Z,99455.02
2019-06-27T11:30:14.089Z,99452.95
2019-06-27T11:32:40.416Z,99448.20
2019-06-27T11:35:06.674Z,99442.77
2019-06-27T11:37:33.397Z,99440.95
2019-06-27T11:39:59.768Z,99444.45
2019-06-27T11:42:28.874Z,99435.77
2019-06-27T11:44:54.360Z,99428.70
2019-06-27T11:47:20.609Z,99420.14
2019-06-27T11:49:46.768Z,99430.16
2019-06-27T11:52:12.923Z,99414.61
2019-06-27T11:54:39.130Z,99426.27
2019-06-27T11:57:05.297Z,99420.33
2019-06-27T11:59:31.454Z,99419.91
2019-06-27T12:01:58.032Z,99421.79
2019-06-27T12:04:24.175Z,99415.53
2019-06-27T12:06:50.710Z,99416.42
2019-06-27T12:09:17.249Z,99417.88
2019-06-27T12:11:43.794Z,99411.56
2019-06-27T12:14:10.270Z,99406.25
2019-06-27T12:16:36.469Z,99397.21
2019-06-27T12:19:02.635Z,99398.98
2019-06-27T12:21:28.804Z,99401.16
2019-06-27T12:23:55.025Z,99395.45
2019-06-27T12:26:21.181Z,99399.41
2019-06-27T12:28:47.333Z,99396.48
2019-06-27T12:31:20.393Z,99386.17
2019-06-27T12:33:41.673Z,99380.27
2019-06-27T12:36:08.222Z,99385.14
2019-06-27T12:38:34.464Z,99382.33
2019-06-27T12:41:01.094Z,99375.50
2019-06-27T12:43:27.252Z,99371.84
2019-06-27T12:45:53.616Z,99370.49
2019-06-27T12:48:19.795Z,99359.63
2019-06-27T12:50:45.952Z,99358.63
2019-06-27T12:53:12.154Z,99363.18
2019-06-27T12:55:38.340Z,99352.92
2019-06-27T12:58:04.486Z,99343.08
2019-06-27T13:00:30.690Z,99343.50
2019-06-27T13:02:57.004Z,99339.83
2019-06-27T13:05:23.165Z,99325.02
2019-06-27T13:07:49.495Z,99324.95
2019-06-27T13:10:15.879Z,99326.44
2019-06-27T13:12:42.144Z,99328.55
2019-06-27T13:15:08.637Z,99331.96
2019-06-27T13:17:34.819Z,99318.39
2019-06-27T13:20:01.092Z,99314.80
2019-06-27T13:22:27.399Z,99313.95
2019-06-27T13:24:53.606Z,99301.91
2019-06-27T13:27:19.748Z,99304.08
2019-06-27T13:29:46.052Z,99307.70
2019-06-27T13:32:12.535Z,99292.80
2019-06-27T13:34:40.700Z,99287.37
2019-06-27T13:37:06.800Z,99291.48
2019-06-27T13:39:33.380Z,99290.31
2019-06-27T13:41:59.541Z,99289.67
2019-06-27T13:44:25.744Z,99289.53
2019-06-27T13:46:51.920Z,99283.00
2019-06-27T13:49:18.091Z,99282.58
2019-06-27T13:51:44.297Z,99279.13
2019-06-27T13:54:10.454Z,99272.95
2019-06-27T13:56:36.621Z,99272.84
2019-06-27T13:59:02.802Z,99266.52
2019-06-27T14:01:28.991Z,99258.62
2019-06-27T14:03:55.164Z,99252.16
2019-06-27T14:06:21.361Z,99248.11
2019-06-27T14:08:47.547Z,99247.45
2019-06-27T14:11:13.722Z,99236.58
2019-06-27T14:13:39.912Z,99234.98
2019-06-27T14:16:06.182Z,99237.28
2019-06-27T14:18:32.554Z,99240.17
2019-06-27T14:20:58.767Z,99230.63
2019-06-27T14:23:24.971Z,99226.37
2019-06-27T14:25:51.101Z,99216.30
2019-06-27T14:28:17.299Z,99205.49
2019-06-27T14:30:43.474Z,99211.41
2019-06-27T14:33:09.653Z,99207.20
2019-06-27T14:35:35.953Z,99212.04
2019-06-27T14:38:02.122Z,99207.58
2019-06-27T14:40:28.288Z,99209.62
2019-06-27T14:42:54.510Z,99206.30
2019-06-27T14:45:20.689Z,99203.72
2019-06-27T14:47:46.865Z,99192.95
2019-06-27T14:50:13.151Z,99186.18
2019-06-27T14:52:39.313Z,99184.84
2019-06-27T14:55:07.121Z,99180.89
2019-06-27T14:57:33.927Z,99167.94
2019-06-27T15:00:00.098Z,99178.25
2019-06-27T15:02:26.246Z,99169.38
2019-06-27T15:04:52.627Z,99162.37
2019-06-27T15:07:18.929Z,99176.02
2019-06-27T15:09:45.193Z,99169.45
2019-06-27T15:12:11.388Z,99171.27
2019-06-27T15:14:37.564Z,99170.81
2019-06-27T15:17:03.716Z,99168.66
2019-06-27T15:19:29.929Z,99162.77
2019-06-27T15:21:56.099Z,99154.55
2019-06-27T15:24:22.251Z,99156.77
2019-06-27T15:26:48.461Z,99154.37
2019-06-27T15:29:14.616Z,99138.97
2019-06-27T15:31:40.816Z,99148.97
2019-06-27T15:34:07.034Z,99141.37
2019-06-27T15:36:34.216Z,99143.48
2019-06-27T15:39:00.391Z,99146.45
2019-06-27T15:41:26.637Z,99140.37
2019-06-27T15:43:52.797Z,99140.71
2019-06-27T15:46:18.949Z,99143.23
2019-06-27T15:48:45.171Z,99137.63
2019-06-27T15:51:11.353Z,99143.92
2019-06-27T15:53:37.667Z,99134.20
2019-06-27T15:56:03.959Z,99127.83
2019-06-27T15:58:30.111Z,99132.55
2019-06-27T16:00:56.296Z,99131.86
2019-06-27T16:03:22.504Z,99130.07
2019-06-27T16:05:48.699Z,99118.89
2019-06-27T16:08:14.871Z,99119.09
2019-06-27T16:10:41.064Z,99122.54
2019-06-27T16:13:07.249Z,99123.88
2019-06-27T16:15:33.394Z,99114.30
2019-06-27T16:17:59.611Z,99117.95
2019-06-27T16:20:25.993Z,99109.21
2019-06-27T16:22:52.155Z,99104.89
2019-06-27T16:25:18.352Z,99098.58
2019-06-27T16:27:44.542Z,99109.66
2019-06-27T16:30:10.929Z,99106.00
2019-06-27T16:32:37.440Z,99111.86
2019-06-27T16:35:05.323Z,99105.29
2019-06-27T16:37:31.525Z,99117.31
2019-06-27T16:39:57.742Z,99114.73
2019-06-27T16:42:23.929Z,99119.83
2019-06-27T16:44:50.566Z,99120.78
2019-06-27T16:47:16.794Z,99120.80
2019-06-27T16:49:43.091Z,99122.48
2019-06-27T16:52:09.286Z,99119.47
2019-06-27T16:54:35.615Z,99113.02
2019-06-27T16:57:01.766Z,99110.13
2019-06-27T16:59:27.934Z,99116.92
2019-06-27T17:01:54.247Z,99117.20
2019-06-27T17:04:20.419Z,99120.59
2019-06-27T17:06:46.568Z,99118.44
2019-06-27T17:09:12.771Z,99109.60
2019-06-27T17:11:38.960Z,99112.77
2019-06-27T17:14:05.211Z,99101.53
2019-06-27T17:16:31.522Z,99098.38
2019-06-27T17:18:57.687Z,99099.44
2019-06-27T17:21:23.846Z,99104.15
2019-06-27T17:23:50.044Z,99105.01
2019-06-27T17:26:16.224Z,99111.22
2019-06-27T17:28:42.508Z,99112.11
2019-06-27T17:31:08.689Z,99118.70
2019-06-27T17:33:34.869Z,99120.52
2019-06-27T17:36:01.024Z,99120.72
2019-06-27T17:38:28.406Z,99121.89
2019-06-27T17:40:54.629Z,99120.73
2019-06-27T17:43:20.807Z,99115.70
2019-06-27T17:45:47.009Z,99115.45
2019-06-27T17:48:13.163Z,99122.72
2019-06-27T17:50:39.350Z,99129.02
2019-06-27T17:53:05.539Z,99121.77
2019-06-27T17:55:31.739Z,99125.59
2019-06-27T17:57:57.906Z,99122.52
2019-06-27T18:00:24.192Z,99119.75
2019-06-27T18:02:50.485Z,99113.80
2019-06-27T18:05:18.510Z,99117.34
2019-06-27T18:07:44.762Z,99132.47
2019-06-27T18:10:11.855Z,99130.05
2019-06-27T18:12:38.106Z,99119.55
2019-06-27T18:15:05.352Z,99123.92
2019-06-27T18:17:33.950Z,99118.29
2019-06-27T18:19:59.593Z,99121.53
2019-06-27T18:22:25.803Z,99116.84
2019-06-27T18:24:52.066Z,99114.36
2019-06-27T18:27:18.449Z,99121.73
2019-06-27T18:29:47.841Z,99125.91
2019-06-27T18:32:12.854Z,99131.73
2019-06-27T18:34:42.089Z,99131.56
2019-06-27T18:37:08.303Z,99126.98
2019-06-27T18:39:34.596Z,99233.23
2019-06-27T18:42:00.791Z,99132.95
2019-06-27T18:44:26.988Z,99148.89
2019-06-27T18:46:53.162Z,99151.58
2019-06-27T18:49:19.347Z,99150.93
2019-06-27T18:51:45.543Z,99156.13
2019-06-27T18:54:11.822Z,99150.95
2019-06-27T18:56:39.911Z,99154.02
2019-06-27T18:59:06.203Z,99147.48
2019-06-27T19:01:32.373Z,99153.77
2019-06-27T19:03:58.573Z,99161.91
2019-06-27T19:06:24.807Z,99164.22
2019-06-27T19:08:50.958Z,99176.37
2019-06-27T19:11:17.150Z,99176.00
2019-06-27T19:13:43.366Z,99173.45
2019-06-27T19:16:09.639Z,99173.45
2019-06-27T19:18:52.648Z,99171.14
2019-06-27T19:21:23.578Z,99168.96
2019-06-27T19:24:00.495Z,99172.25
2019-06-27T19:26:26.667Z,99178.98
2019-06-27T19:28:52.836Z,99178.96
2019-06-27T19:31:19.071Z,99174.25
2019-06-27T19:33:45.550Z,99174.74
2019-06-27T19:36:11.714Z,99174.74
2019-06-27T19:38:37.932Z,99173.20
2019-06-27T19:41:04.268Z,99158.75
2019-06-27T19:43:30.434Z,99158.75
2019-06-27T19:45:56.635Z,99154.34
2019-06-27T19:48:22.823Z,99162.80
2019-06-27T19:50:48.992Z,99162.80
2019-06-27T19:53:15.231Z,99146.34
2019-06-27T19:55:41.420Z,99143.45
2019-06-27T19:58:07.587Z,99145.88
2019-06-27T20:00:46.282Z,99145.52
2019-06-27T20:03:16.750Z,99145.52
2019-06-27T20:05:42.935Z,99145.52
2019-06-27T20:08:18.895Z,99147.63
2019-06-27T20:10:37.205Z,99152.73
2019-06-27T20:13:03.663Z,99158.39
2019-06-27T20:15:29.869Z,99161.83
2019-06-27T20:17:56.052Z,99160.93
2019-06-27T20:20:22.230Z,99158.00
2019-06-27T20:22:48.417Z,99162.57
2019-06-27T20:25:14.680Z,99157.09
2019-06-27T20:27:40.871Z,99161.55
2019-06-27T20:30:07.679Z,99156.86
2019-06-27T20:32:33.864Z,99161.05
2019-06-27T20:35:00.062Z,99154.17
2019-06-27T20:37:27.145Z,99154.11
2019-06-27T20:39:53.558Z,99151.92
2019-06-27T20:42:19.826Z,99154.43
2019-06-27T20:44:46.009Z,99159.55
2019-06-27T20:47:12.198Z,99149.63
2019-06-27T20:49:38.349Z,99149.66
2019-06-27T20:52:04.557Z,99160.64
2019-06-27T20:54:30.737Z,99162.78
2019-06-27T20:56:56.884Z,99162.61
2019-06-27T20:59:23.079Z,99152.30
2019-06-27T21:01:49.285Z,99145.33
2019-06-27T21:04:15.436Z,99142.56
2019-06-27T21:06:41.625Z,99137.24
2019-06-27T21:09:07.810Z,99136.73
2019-06-27T21:11:33.964Z,99134.96
2019-06-27T21:14:00.165Z,99126.19
2019-06-27T21:16:26.347Z,99122.77
2019-06-27T21:18:52.551Z,99125.20
2019-06-27T21:21:19.192Z,99124.77
2019-06-27T21:23:45.346Z,99126.23
2019-06-27T21:26:11.519Z,99122.06
2019-06-27T21:28:37.717Z,99111.33
2019-06-27T21:31:03.935Z,99116.23
2019-06-27T21:33:30.084Z,99099.45
2019-06-27T21:35:56.269Z,99099.31
2019-06-27T21:38:22.526Z,99102.09
2019-06-27T21:40:48.708Z,99099.53
2019-06-27T21:43:15.849Z,99098.62
2019-06-27T21:45:41.996Z,99095.73
2019-06-27T21:48:08.170Z,99091.24
2019-06-27T21:50:34.365Z,99089.42
2019-06-27T21:53:00.522Z,99091.28
2019-06-27T21:55:26.709Z,99088.89
2019-06-27T21:57:52.891Z,99090.79
2019-06-27T22:00:19.787Z,99091.36
2019-06-27T22:02:46.072Z,99085.37
2019-06-27T22:05:12.467Z,99080.47
2019-06-27T22:07:38.641Z,99084.39
2019-06-27T22:10:06.902Z,99085.23
2019-06-27T22:12:34.448Z,99080.28
2019-06-27T22:15:00.974Z,99078.86
2019-06-27T22:17:27.139Z,99071.80
2019-06-27T22:19:53.329Z,99075.23
2019-06-27T22:22:19.480Z,99065.56
2019-06-27T22:24:48.044Z,99070.75
2019-06-27T22:27:14.244Z,99066.27
2019-06-27T22:29:40.426Z,99071.05
2019-06-27T22:32:06.595Z,99078.44
2019-06-27T22:34:33.191Z,99074.86
2019-06-27T22:37:02.169Z,99079.57
2019-06-27T22:39:46.876Z,99073.76
2019-06-27T22:42:31.374Z,99080.05
2019-06-27T22:45:15.793Z,99088.05
2019-06-27T22:48:00.679Z,99083.95
2019-06-27T22:50:31.768Z,99082.65
2019-06-27T22:53:11.634Z,99089.27
2019-06-27T22:55:37.942Z,99079.98
2019-06-27T22:58:04.115Z,99079.37
2019-06-27T23:00:30.374Z,99077.87
2019-06-27T23:02:56.569Z,99082.86
2019-06-27T23:05:22.748Z,99077.52
2019-06-27T23:07:48.928Z,99082.71
2019-06-27T23:10:15.112Z,99069.54
2019-06-27T23:12:41.275Z,99064.97
2019-06-27T23:15:07.851Z,99073.58
2019-06-27T23:17:34.052Z,99063.87
2019-06-27T23:20:00.216Z,99053.93
2019-06-27T23:22:26.419Z,99049.02
2019-06-27T23:24:52.683Z,99034.03
2019-06-27T23:27:18.833Z,99028.96
2019-06-27T23:29:45.021Z,99022.32
2019-06-27T23:32:11.311Z,99023.55
2019-06-27T23:34:37.466Z,99026.45
2019-06-27T23:37:03.626Z,99020.45
2019-06-27T23:39:29.840Z,99007.48
2019-06-27T23:41:56.022Z,98990.13
2019-06-27T23:44:22.182Z,98983.80
2019-06-27T23:46:48.505Z,98972.45
2019-06-27T23:49:14.667Z,98960.88
2019-06-27T23:51:40.838Z,98953.52
2019-06-27T23:54:07.435Z,98959.16
2019-06-27T23:56:33.603Z,98956.29
2019-06-27T23:58:59.760Z,98960.12
